createdAt,value
2019-05-05T00:00:31.351Z,1.50
2019-05-05T00:03:08.419Z,1.50
2019-05-05T00:05:37.498Z,1.73
2019-05-05T00:08:05.067Z,1.60
2019-05-05T00:10:54.190Z,1.70
2019-05-05T00:13:27.963Z,1.50
2019-05-05T00:16:15.179Z,1.73
2019-05-05T00:18:44.733Z,1.70
2019-05-05T00:21:11.762Z,1.80
2019-05-05T00:23:39.070Z,1.80
2019-05-05T00:26:06.693Z,1.70
2019-05-05T00:28:35.397Z,1.80
2019-05-05T00:31:04.654Z,2.00
2019-05-05T00:33:34.222Z,1.73
2019-05-05T00:36:01.317Z,1.93
2019-05-05T00:38:28.827Z,2.00
2019-05-05T00:40:56.556Z,1.90
2019-05-05T00:43:29.888Z,1.80
2019-05-05T00:46:04.656Z,1.70
2019-05-05T00:48:44.349Z,1.90
2019-05-05T00:51:11.839Z,1.80
2019-05-05T00:53:39.541Z,2.00
2019-05-05T00:56:07.464Z,1.80
2019-05-05T00:58:37.201Z,1.63
2019-05-05T01:01:24.921Z,1.70
2019-05-05T01:03:54.568Z,1.60
2019-05-05T01:06:25.582Z,1.43
2019-05-05T01:11:26.820Z,1.57
2019-05-05T01:13:54.764Z,1.77
2019-05-05T01:16:24.581Z,1.60
2019-05-05T01:18:51.673Z,1.67
2019-05-05T01:21:19.338Z,1.70
2019-05-05T01:23:50.347Z,1.93
2019-05-05T01:26:20.198Z,1.67
2019-05-05T01:28:48.475Z,1.60
2019-05-05T01:31:17.827Z,1.80
2019-05-05T01:34:04.837Z,1.57
2019-05-05T01:36:34.415Z,1.73
2019-05-05T01:39:21.357Z,1.40
2019-05-05T01:41:58.623Z,1.70
2019-05-05T01:44:25.976Z,1.57
2019-05-05T01:46:55.100Z,1.73
2019-05-05T01:49:25.103Z,1.60
2019-05-05T01:51:52.319Z,1.70
2019-05-05T01:54:21.759Z,1.90
2019-05-05T01:56:52.283Z,1.80
2019-05-05T01:59:19.317Z,1.80
2019-05-05T02:01:46.976Z,1.70
2019-05-05T02:04:14.676Z,2.00
2019-05-05T02:06:44.300Z,1.97
2019-05-05T02:09:12.571Z,1.97
2019-05-05T02:11:40.542Z,1.83
2019-05-05T02:14:51.568Z,1.87
2019-05-05T02:17:19.435Z,2.00
2019-05-05T02:19:47.411Z,1.57
2019-05-05T02:22:21.659Z,1.50
2019-05-05T02:24:50.144Z,1.63
2019-05-05T02:27:19.800Z,1.47
2019-05-05T02:30:07.687Z,1.73
2019-05-05T02:32:45.012Z,1.40
2019-05-05T02:35:16.208Z,1.57
2019-05-05T02:37:45.979Z,2.10
2019-05-05T02:40:15.883Z,1.93
2019-05-05T02:42:45.774Z,2.10
2019-05-05T02:45:35.225Z,1.97
2019-05-05T02:48:11.150Z,2.00
2019-05-05T02:51:02.355Z,1.60
2019-05-05T02:53:33.990Z,1.87
2019-05-05T02:56:05.686Z,1.93
2019-05-05T02:58:54.748Z,1.60
2019-05-05T03:01:40.872Z,2.07
2019-05-05T03:04:09.107Z,1.87
2019-05-05T03:06:40.412Z,2.00
2019-05-05T03:09:08.426Z,2.03
2019-05-05T03:11:37.320Z,2.20
2019-05-05T03:14:08.010Z,2.07
2019-05-05T03:16:37.716Z,2.20
2019-05-05T03:19:07.552Z,2.17
2019-05-05T03:21:35.860Z,1.97
2019-05-05T03:24:23.493Z,1.93
2019-05-05T03:26:53.567Z,1.87
2019-05-05T03:29:21.060Z,1.90
2019-05-05T03:31:49.222Z,2.10
2019-05-05T03:34:18.748Z,2.10
2019-05-05T03:36:46.372Z,1.80
2019-05-05T03:39:23.567Z,1.60
2019-05-05T03:42:20.227Z,2.00
2019-05-05T03:45:19.372Z,1.73
2019-05-05T03:47:46.906Z,1.70
2019-05-05T03:50:15.594Z,1.67
2019-05-05T03:52:44.759Z,1.83
2019-05-05T03:55:13.778Z,1.50
2019-05-05T03:57:44.485Z,1.30
2019-05-05T04:00:14.852Z,1.20
2019-05-05T04:02:50.398Z,1.00
2019-05-05T04:05:23.716Z,1.20
2019-05-05T04:07:51.343Z,1.20
2019-05-05T04:10:18.822Z,1.23
2019-05-05T04:12:47.031Z,1.00
2019-05-05T04:15:14.587Z,1.00
2019-05-05T04:17:56.736Z,0.97
2019-05-05T04:20:44.224Z,1.10
2019-05-05T04:23:11.622Z,1.00
2019-05-05T04:25:38.832Z,1.00
2019-05-05T04:28:06.048Z,1.10
2019-05-05T04:30:33.941Z,1.07
2019-05-05T04:33:03.782Z,1.07
2019-05-05T04:35:31.276Z,1.10
2019-05-05T04:37:58.781Z,1.10
2019-05-05T04:40:26.429Z,1.10
2019-05-05T04:42:56.170Z,1.00
2019-05-05T04:45:24.254Z,1.17
2019-05-05T04:47:55.805Z,1.20
2019-05-05T04:50:39.623Z,1.10
2019-05-05T04:53:10.804Z,0.93
2019-05-05T04:55:38.327Z,1.10
2019-05-05T04:58:05.891Z,1.10
2019-05-05T05:00:34.182Z,0.97
2019-05-05T05:03:27.489Z,1.00
2019-05-05T05:06:07.030Z,1.03
2019-05-05T05:08:34.752Z,1.10
2019-05-05T05:11:03.673Z,1.10
2019-05-05T05:13:31.437Z,1.30
2019-05-05T05:15:59.073Z,1.10
2019-05-05T05:18:34.403Z,1.30
2019-05-05T05:21:03.975Z,1.17
2019-05-05T05:23:33.899Z,1.30
2019-05-05T05:26:01.179Z,1.30
2019-05-05T05:28:28.493Z,1.20
2019-05-05T05:30:55.648Z,1.40
2019-05-05T05:33:23.914Z,1.20
2019-05-05T05:35:51.291Z,1.33
2019-05-05T05:38:18.527Z,1.30
2019-05-05T05:40:57.533Z,1.20
2019-05-05T05:43:43.990Z,1.40
2019-05-05T05:46:19.876Z,1.10
2019-05-05T05:49:06.519Z,1.00
2019-05-05T05:51:34.200Z,1.10
2019-05-05T05:54:03.644Z,0.97
2019-05-05T05:56:30.783Z,1.10
2019-05-05T05:58:58.151Z,1.00
2019-05-05T06:01:25.608Z,0.90
2019-05-05T06:03:53.613Z,0.90
2019-05-05T06:06:21.196Z,0.73
2019-05-05T06:08:48.528Z,0.90
2019-05-05T06:11:15.877Z,0.90
2019-05-05T06:13:44.401Z,0.90
2019-05-05T06:16:14.451Z,0.60
2019-05-05T06:18:43.583Z,0.90
2019-05-05T06:21:10.599Z,0.80
2019-05-05T06:23:37.868Z,0.80
2019-05-05T06:26:06.875Z,1.00
2019-05-05T06:28:34.374Z,0.83
2019-05-05T06:31:01.773Z,0.93
2019-05-05T06:33:29.138Z,0.70
2019-05-05T06:35:56.349Z,0.80
2019-05-05T06:38:24.315Z,0.80
2019-05-05T06:41:21.093Z,0.93
2019-05-05T06:44:24.634Z,0.80
2019-05-05T06:47:10.068Z,0.80
2019-05-05T06:49:37.423Z,0.70
2019-05-05T06:52:04.655Z,0.70
2019-05-05T06:54:31.959Z,0.50
2019-05-05T06:56:59.229Z,0.67
2019-05-05T06:59:26.431Z,0.77
2019-05-05T07:01:53.761Z,0.80
2019-05-05T07:04:21.093Z,0.73
2019-05-05T07:06:54.014Z,0.70
2019-05-05T07:09:17.429Z,0.57
2019-05-05T07:11:44.797Z,0.60
2019-05-05T07:14:14.134Z,0.80
2019-05-05T07:16:41.270Z,0.80
2019-05-05T07:19:08.580Z,0.63
2019-05-05T07:21:36.016Z,0.40
2019-05-05T07:24:03.941Z,0.80
2019-05-05T07:26:31.430Z,0.70
2019-05-05T07:28:58.683Z,0.60
2019-05-05T07:31:25.926Z,0.80
2019-05-05T07:33:54.498Z,0.90
2019-05-05T07:36:35.484Z,1.20
2019-05-05T07:39:05.772Z,0.43
2019-05-05T07:41:34.113Z,0.83
2019-05-05T07:44:01.521Z,0.50
2019-05-05T07:46:28.871Z,0.60
2019-05-05T07:48:56.211Z,0.70
2019-05-05T07:51:24.224Z,0.60
2019-05-05T07:53:51.695Z,0.50
2019-05-05T07:56:19.011Z,0.60
2019-05-05T07:58:46.264Z,0.50
2019-05-05T08:01:14.078Z,0.50
2019-05-05T08:03:41.679Z,0.70
2019-05-05T08:06:09.008Z,0.53
2019-05-05T08:08:36.355Z,0.60
2019-05-05T08:11:04.763Z,0.60
2019-05-05T08:13:33.637Z,0.67
2019-05-05T08:16:03.860Z,0.80
2019-05-05T08:18:43.823Z,0.80
2019-05-05T08:21:13.107Z,0.43
2019-05-05T08:24:00.021Z,0.50
2019-05-05T08:26:40.988Z,0.30
2019-05-05T08:29:26.721Z,0.53
2019-05-05T08:32:10.101Z,0.70
2019-05-05T08:34:37.440Z,0.50
2019-05-05T08:37:04.840Z,0.50
2019-05-05T08:39:34.340Z,0.50
2019-05-05T08:42:01.337Z,0.70
2019-05-05T08:44:28.558Z,0.53
2019-05-05T08:46:55.891Z,0.90
2019-05-05T08:49:24.401Z,0.60
2019-05-05T08:51:52.013Z,0.50
2019-05-05T08:54:19.336Z,0.70
2019-05-05T08:56:46.662Z,0.50
2019-05-05T08:59:14.410Z,0.70
2019-05-05T09:01:41.876Z,0.50
2019-05-05T09:04:09.120Z,0.53
2019-05-05T09:06:37.837Z,0.50
2019-05-05T09:09:06.204Z,0.50
2019-05-05T09:11:34.282Z,0.57
2019-05-05T09:14:01.550Z,0.50
2019-05-05T09:16:28.910Z,0.50
2019-05-05T09:18:59.907Z,0.60
2019-05-05T09:21:27.224Z,0.50
2019-05-05T09:23:59.907Z,0.43
2019-05-05T09:26:34.437Z,0.50
2019-05-05T09:29:21.435Z,0.50
2019-05-05T09:31:48.729Z,0.60
2019-05-05T09:34:15.964Z,0.30
2019-05-05T09:36:43.950Z,0.40
2019-05-05T09:39:11.299Z,0.50
2019-05-05T09:41:38.526Z,0.50
2019-05-05T09:44:05.860Z,0.60
2019-05-05T09:46:34.050Z,0.30
2019-05-05T09:49:01.411Z,0.50
2019-05-05T09:51:28.689Z,0.50
2019-05-05T09:53:55.995Z,0.50
2019-05-05T09:56:23.687Z,0.50
2019-05-05T09:58:51.093Z,0.60
2019-05-05T10:01:18.483Z,0.63
2019-05-05T10:03:45.787Z,0.77
2019-05-05T10:06:14.274Z,0.70
2019-05-05T10:08:41.760Z,0.70
2019-05-05T10:11:09.009Z,0.60
2019-05-05T10:13:36.327Z,0.50
2019-05-05T10:16:04.312Z,0.60
2019-05-05T10:18:34.024Z,0.60
2019-05-05T10:21:00.814Z,0.60
2019-05-05T10:23:30.384Z,0.60
2019-05-05T10:26:04.400Z,0.80
2019-05-05T10:28:31.716Z,0.80
2019-05-05T10:30:59.024Z,0.70
2019-05-05T10:33:26.874Z,0.70
2019-05-05T10:35:54.249Z,0.83
2019-05-05T10:38:23.484Z,0.87
2019-05-05T10:40:50.885Z,0.80
2019-05-05T10:43:18.199Z,0.77
2019-05-05T10:45:45.439Z,1.00
2019-05-05T10:48:14.409Z,1.00
2019-05-05T10:50:44.258Z,1.40
2019-05-05T10:53:10.952Z,1.10
2019-05-05T10:55:38.171Z,1.00
2019-05-05T10:58:05.414Z,1.10
2019-05-05T11:00:44.127Z,0.90
2019-05-05T11:03:11.335Z,1.03
2019-05-05T11:05:38.668Z,1.10
2019-05-05T11:08:07.122Z,1.20
2019-05-05T11:10:34.446Z,1.90
2019-05-05T11:13:02.132Z,1.80
2019-05-05T11:15:29.567Z,1.20
2019-05-05T11:17:56.803Z,1.40
2019-05-05T11:20:24.779Z,1.00
2019-05-05T11:22:54.125Z,1.00
2019-05-05T11:25:21.332Z,1.20
2019-05-05T11:27:48.783Z,0.60
2019-05-05T11:30:26.762Z,0.77
2019-05-05T11:33:11.076Z,0.90
2019-05-05T11:35:47.664Z,0.90
2019-05-05T11:38:15.004Z,0.83
2019-05-05T11:40:43.945Z,1.00
2019-05-05T11:43:11.399Z,0.80
2019-05-05T11:45:38.733Z,0.90
2019-05-05T11:48:05.952Z,1.00
2019-05-05T11:50:34.240Z,0.80
2019-05-05T11:53:01.550Z,0.80
2019-05-05T11:55:28.901Z,0.97
2019-05-05T11:57:57.664Z,0.80
2019-05-05T12:00:25.264Z,1.20
2019-05-05T12:02:54.370Z,1.23
2019-05-05T12:05:21.728Z,1.13
2019-05-05T12:07:49.084Z,1.07
2019-05-05T12:10:36.244Z,1.30
2019-05-05T12:13:04.547Z,1.00
2019-05-05T12:15:31.860Z,1.20
2019-05-05T12:17:59.092Z,0.90
2019-05-05T12:20:33.691Z,1.23
2019-05-05T12:23:01.040Z,1.50
2019-05-05T12:25:48.875Z,0.80
2019-05-05T12:28:34.729Z,1.10
2019-05-05T12:31:04.527Z,1.10
2019-05-05T12:33:33.527Z,1.20
2019-05-05T12:36:00.920Z,1.50
2019-05-05T12:38:28.920Z,1.37
2019-05-05T12:40:56.265Z,1.07
2019-05-05T12:43:24.766Z,0.90
2019-05-05T12:46:00.379Z,1.10
2019-05-05T12:48:31.420Z,1.40
2019-05-05T12:50:58.761Z,0.90
2019-05-05T12:53:26.087Z,1.20
2019-05-05T12:55:53.870Z,1.30
2019-05-05T12:58:21.209Z,1.00
2019-05-05T13:00:59.366Z,1.10
2019-05-05T13:03:26.571Z,1.23
2019-05-05T13:05:53.807Z,1.20
2019-05-05T13:08:21.061Z,1.30
2019-05-05T13:10:48.404Z,1.27
2019-05-05T13:13:15.752Z,1.20
2019-05-05T13:15:44.308Z,1.40
2019-05-05T13:18:11.623Z,1.57
2019-05-05T13:20:49.728Z,1.10
2019-05-05T13:23:27.021Z,1.00
2019-05-05T13:26:17.830Z,1.13
2019-05-05T13:28:45.148Z,1.10
2019-05-05T13:31:13.905Z,1.30
2019-05-05T13:33:41.518Z,1.33
2019-05-05T13:36:08.851Z,1.00
2019-05-05T13:38:36.064Z,0.93
2019-05-05T13:41:03.775Z,0.90
2019-05-05T13:43:31.320Z,0.90
2019-05-05T13:46:04.760Z,1.10
2019-05-05T13:48:33.804Z,0.63
2019-05-05T13:51:04.305Z,0.77
2019-05-05T13:53:31.802Z,0.90
2019-05-05T13:56:11.041Z,0.93
2019-05-05T13:58:28.156Z,0.90
2019-05-05T14:00:55.472Z,0.90
2019-05-05T14:03:23.530Z,0.87
2019-05-05T14:05:50.927Z,0.90
2019-05-05T14:08:18.168Z,0.70
2019-05-05T14:10:45.512Z,0.80
2019-05-05T14:13:15.099Z,0.83
2019-05-05T14:15:43.976Z,0.90
2019-05-05T14:18:11.243Z,0.97
2019-05-05T14:20:38.563Z,1.13
2019-05-05T14:23:06.112Z,0.93
2019-05-05T14:25:33.447Z,0.80
2019-05-05T14:28:00.792Z,1.10
2019-05-05T14:30:36.665Z,0.90
2019-05-05T14:33:04.311Z,0.93
2019-05-05T14:35:37.927Z,0.93
2019-05-05T14:38:08.797Z,1.07
2019-05-05T14:40:36.144Z,1.10
2019-05-05T14:43:04.537Z,0.90
2019-05-05T14:45:33.886Z,1.70
2019-05-05T14:48:01.044Z,1.40
2019-05-05T14:50:28.291Z,1.50
2019-05-05T14:52:55.612Z,1.30
2019-05-05T14:55:22.943Z,1.20
2019-05-05T14:57:50.304Z,1.30
2019-05-05T15:00:19.815Z,0.97
2019-05-05T15:02:47.061Z,1.40
2019-05-05T15:05:37.020Z,1.30
2019-05-05T15:08:10.404Z,1.30
2019-05-05T15:11:03.652Z,1.33
2019-05-05T15:13:31.210Z,1.40
2019-05-05T15:15:58.487Z,1.50
2019-05-05T15:18:25.792Z,1.30
2019-05-05T15:20:54.717Z,1.30
2019-05-05T15:23:23.863Z,1.67
2019-05-05T15:25:51.267Z,1.67
2019-05-05T15:28:18.627Z,0.80
2019-05-05T15:30:45.939Z,1.50
2019-05-05T15:33:13.808Z,1.33
2019-05-05T15:35:43.767Z,1.57
2019-05-05T15:38:10.352Z,1.23
2019-05-05T15:40:37.724Z,1.83
2019-05-05T15:43:05.053Z,1.53
2019-05-05T15:45:34.005Z,2.00
2019-05-05T15:48:01.531Z,2.43
2019-05-05T15:50:28.772Z,2.63
2019-05-05T15:52:56.120Z,2.20
2019-05-05T15:55:24.530Z,2.43
2019-05-05T15:57:51.877Z,2.00
2019-05-05T16:00:19.404Z,2.40
2019-05-05T16:02:46.768Z,2.10
2019-05-05T16:05:14.522Z,1.80
2019-05-05T16:07:43.820Z,2.00
2019-05-05T16:10:13.466Z,2.10
2019-05-05T16:12:40.573Z,2.07
2019-05-05T16:15:41.140Z,1.80
2019-05-05T16:18:31.609Z,2.17
2019-05-05T16:21:08.988Z,2.00
2019-05-05T16:23:43.491Z,2.10
2019-05-05T16:26:10.644Z,2.40
2019-05-05T16:28:37.939Z,2.07
2019-05-05T16:31:05.537Z,2.23
2019-05-05T16:33:33.523Z,2.23
2019-05-05T16:36:00.921Z,3.03
2019-05-05T16:38:28.253Z,2.73
2019-05-05T16:40:55.599Z,2.17
2019-05-05T16:43:24.725Z,2.40
2019-05-05T16:45:53.696Z,2.50
2019-05-05T16:48:21.110Z,1.70
2019-05-05T16:50:48.420Z,2.20
2019-05-05T16:53:34.989Z,2.33
2019-05-05T16:56:04.384Z,2.53
2019-05-05T16:58:33.369Z,2.20
2019-05-05T17:01:00.814Z,2.10
2019-05-05T17:03:28.139Z,1.97
2019-05-05T17:05:57.882Z,1.70
2019-05-05T17:08:24.673Z,2.40
2019-05-05T17:10:52.060Z,2.53
2019-05-05T17:13:29.262Z,3.00
2019-05-05T17:16:16.290Z,3.07
2019-05-05T17:18:49.646Z,3.70
2019-05-05T17:21:42.144Z,3.93
2019-05-05T17:24:09.403Z,3.30
2019-05-05T17:26:36.743Z,3.47
2019-05-05T17:29:04.195Z,3.80
2019-05-05T17:31:33.860Z,3.80
2019-05-05T17:34:00.642Z,3.67
2019-05-05T17:36:28.180Z,3.57
2019-05-05T17:38:55.437Z,3.70
2019-05-05T17:41:44.384Z,3.67
2019-05-05T17:44:49.351Z,3.30
2019-05-05T17:47:34.952Z,3.13
2019-05-05T17:50:23.834Z,3.47
2019-05-05T17:53:08.808Z,3.30
2019-05-05T17:55:37.956Z,3.87
2019-05-05T17:58:05.494Z,3.10
2019-05-05T18:00:37.251Z,3.60
2019-05-05T18:03:04.564Z,3.77
2019-05-05T18:06:09.775Z,2.47
2019-05-05T18:08:40.670Z,2.93
2019-05-05T18:11:16.690Z,3.30
2019-05-05T18:13:49.820Z,3.80
2019-05-05T18:16:18.243Z,3.80
2019-05-05T18:18:45.571Z,3.63
2019-05-05T18:21:14.221Z,3.70
2019-05-05T18:23:43.722Z,4.10
2019-05-05T18:26:10.887Z,3.90
2019-05-05T18:28:38.164Z,3.87
2019-05-05T18:31:05.729Z,4.20
2019-05-05T18:33:33.968Z,4.03
2019-05-05T18:36:01.480Z,3.80
2019-05-05T18:38:28.815Z,4.50
2019-05-05T18:40:58.132Z,4.37
2019-05-05T18:43:34.037Z,4.33
2019-05-05T18:46:04.547Z,3.97
2019-05-05T18:48:32.070Z,3.93
2019-05-05T18:50:59.298Z,4.23
2019-05-05T18:53:26.740Z,3.70
2019-05-05T18:55:54.131Z,4.00
2019-05-05T18:58:29.799Z,4.20
2019-05-05T19:01:08.588Z,4.20
2019-05-05T19:03:55.466Z,3.93
2019-05-05T19:06:41.156Z,4.53
2019-05-05T19:09:09.917Z,3.90
2019-05-05T19:11:37.263Z,3.90
2019-05-05T19:14:04.711Z,5.05
2019-05-05T19:16:31.825Z,4.63
2019-05-05T19:18:59.160Z,4.17
2019-05-05T19:21:30.784Z,4.60
2019-05-05T19:23:58.244Z,4.53
2019-05-05T19:26:25.695Z,4.40
2019-05-05T19:28:54.742Z,4.57
2019-05-05T19:31:22.372Z,4.30
2019-05-05T19:33:49.746Z,4.70
2019-05-05T19:36:17.079Z,4.13
2019-05-05T19:38:44.384Z,4.97
2019-05-05T19:41:11.725Z,4.27
2019-05-05T19:43:51.675Z,4.20
2019-05-05T19:46:19.664Z,4.30
2019-05-05T19:48:46.871Z,4.33
2019-05-05T19:51:15.492Z,4.27
2019-05-05T19:53:44.587Z,4.57
2019-05-05T19:56:13.568Z,4.20
2019-05-05T19:58:40.973Z,3.80
2019-05-05T20:01:08.345Z,4.53
2019-05-05T20:03:35.971Z,4.83
2019-05-05T20:06:04.915Z,3.87
2019-05-05T20:08:40.312Z,4.80
2019-05-05T20:11:01.659Z,4.37
2019-05-05T20:13:28.904Z,4.43
2019-05-05T20:16:04.542Z,4.67
2019-05-05T20:18:34.123Z,4.90
2019-05-05T20:21:06.372Z,4.57
2019-05-05T20:23:30.203Z,4.20
2019-05-05T20:25:57.717Z,4.13
2019-05-05T20:28:25.097Z,4.87
2019-05-05T20:30:54.102Z,4.10
2019-05-05T20:33:30.685Z,4.43
2019-05-05T20:36:03.805Z,3.70
2019-05-05T20:38:40.756Z,4.00
2019-05-05T20:41:18.606Z,2.93
2019-05-05T20:43:45.936Z,3.43
2019-05-05T20:46:13.774Z,2.20
2019-05-05T20:48:41.405Z,3.07
2019-05-05T20:51:08.932Z,2.53
2019-05-05T20:53:36.248Z,2.57
2019-05-05T20:56:04.301Z,2.40
2019-05-05T20:58:33.646Z,2.20
2019-05-05T21:01:01.186Z,2.20
2019-05-05T21:03:28.739Z,2.00
2019-05-05T21:05:55.950Z,2.57
2019-05-05T21:08:23.639Z,2.17
2019-05-05T21:10:51.058Z,2.30
2019-05-05T21:13:18.409Z,3.43
2019-05-05T21:15:45.641Z,3.30
2019-05-05T21:18:14.384Z,3.07
2019-05-05T21:20:41.971Z,3.20
2019-05-05T21:23:19.299Z,3.07
2019-05-05T21:25:56.127Z,3.17
2019-05-05T21:28:24.100Z,2.90
2019-05-05T21:30:51.535Z,2.83
2019-05-05T21:33:18.778Z,2.80
2019-05-05T21:35:46.079Z,2.43
2019-05-05T21:38:14.273Z,2.93
2019-05-05T21:40:43.894Z,2.43
2019-05-05T21:43:10.853Z,2.83
2019-05-05T21:45:38.169Z,2.90
2019-05-05T21:48:05.507Z,3.13
2019-05-05T21:50:38.488Z,3.23
2019-05-05T21:53:30.931Z,3.70
2019-05-05T21:56:25.552Z,3.33
2019-05-05T21:58:53.729Z,3.30
2019-05-05T22:01:26.297Z,3.20
2019-05-05T22:03:53.679Z,4.10
2019-05-05T22:06:21.047Z,3.63
2019-05-05T22:08:48.303Z,4.33
2019-05-05T22:11:15.539Z,3.60
2019-05-05T22:13:44.187Z,4.37
2019-05-05T22:16:13.650Z,3.13
2019-05-05T22:18:40.992Z,3.90
2019-05-05T22:21:29.446Z,4.20
2019-05-05T22:24:15.949Z,3.50
2019-05-05T22:26:44.676Z,3.53
2019-05-05T22:29:16.418Z,3.13
2019-05-05T22:31:41.322Z,3.50
2019-05-05T22:34:08.677Z,3.50
2019-05-05T22:36:36.209Z,3.37
2019-05-05T22:39:05.503Z,3.53
2019-05-05T22:41:33.733Z,3.10
2019-05-05T22:44:01.484Z,4.63
2019-05-05T22:46:28.837Z,3.73
2019-05-05T22:48:56.156Z,3.70
2019-05-05T22:51:23.527Z,3.40
2019-05-05T22:53:50.766Z,3.27
2019-05-05T22:56:17.971Z,3.30
2019-05-05T22:58:45.224Z,3.10
2019-05-05T23:01:13.586Z,3.10
2019-05-05T23:03:55.131Z,2.80
2019-05-05T23:06:24.591Z,3.37
2019-05-05T23:08:51.952Z,3.13
2019-05-05T23:11:19.256Z,3.23
2019-05-05T23:13:46.524Z,3.40
2019-05-05T23:16:20.792Z,3.27
2019-05-05T23:18:48.039Z,3.57
2019-05-05T23:21:31.367Z,3.47
2019-05-05T23:24:24.228Z,3.07
2019-05-05T23:26:54.585Z,3.47
2019-05-05T23:29:21.996Z,3.50
2019-05-05T23:31:49.316Z,3.27
2019-05-05T23:34:16.650Z,3.30
2019-05-05T23:36:44.413Z,3.20
2019-05-05T23:39:13.607Z,2.70
2019-05-05T23:41:40.951Z,3.10
2019-05-05T23:44:08.293Z,3.37
2019-05-05T23:46:35.685Z,2.70
2019-05-05T23:49:04.290Z,3.10
2019-05-05T23:51:31.786Z,3.40
2019-05-05T23:53:59.018Z,3.47
2019-05-05T23:56:26.280Z,3.77
2019-05-05T23:58:54.942Z,3.40
